PAJNPAWG

Guest
Details From PAJN - Juneau Intl
To PAWG - Wrangell
Flight Number -
Tags Routegen Generated
Created
Modified
Stats Distance 134 nm / 249 km
Max Altitude 500 ft / 152 m
Waypoints 8
Social Downloads 3
Likes 0
Share

Download

Looking for another format? Having issues loading an existing format? Contact us
Advertisement - Login to hide

Notes

Departing runway 10 PAJN. Arriving runway 12 PAWG.

Route

PAJN +58.33_-134.42 +58.30_-134.33 +58.25_-134.27 +57.60_-133.58 +56.57_-132.56 +56.53_-132.49 PAWG

ID Type Via Altitude (ft/m) Position (lat/lon) Dist (leg/tot) Name
O PAJN APT - 0 / 0 58.35200 / -134.55500 - / 0 nm
+58.33_-134.42 LATLON - 500 / 152 58.33332 / -134.42179 4 / 4 nm
+58.30_-134.33 LATLON - 500 / 152 58.30016 / -134.33143 3 / 7 nm
+58.25_-134.27 LATLON - 500 / 152 58.25278 / -134.26817 3 / 11 nm
+57.60_-133.58 LATLON - 500 / 152 57.60092 / -133.58208 44 / 56 nm
+56.57_-132.56 LATLON - 500 / 152 56.57157 / -132.55992 70 / 126 nm
+56.53_-132.49 LATLON - 500 / 152 56.52631 / -132.49443 3 / 129 nm
O PAWG APT - 0 / 0 56.48860 / -132.38250 4 / 134 nm

Altitude Profile

Advertisement - Login to hide

PAJN

Details ICAO PAJN (JNU)
Name Juneau Intl
Region USA (Alaska)
Timezone America/Juneau (UTC-8.0)
Stats Elevation 20 ft / 6 m (AMSL)
Location 58.355000° -134.576000°
Runways 1
Magnetic Variation 18.129° E

METAR

PAJN 121553Z 00000KT 10SM FEW005 BKN037 OVC050 11/09 A2986

Decode

TAF

PAJN 121130Z 1212/1312 09008KT P6SM VCSH FEW020 OVC035 TEMPO 1212/1215 6SM -SHRA BKN025 OVC050 FM121500 11007KT P6SM VCSH OVC025 FM122100 14007KT P6SM VCSH OVC050

Decode

Departure Runways

ID Width Length Bearing (true/mag) Surface Threshold Overrun Markings Lighting
08 151 ft / 46 m 8,867 ft / 2,703 m 104.87° / 86.74° ASPHALT 220 ft / 67 m 0 ft / 0 m APP CENTERLINE EDGE THRESHOLD MALSF
26 151 ft / 46 m 8,867 ft / 2,703 m 284.90° / 266.78° ASPHALT 217 ft / 66 m 0 ft / 0 m APP CENTERLINE EDGE THRESHOLD MALS

PAWG

Details ICAO PAWG (WRG)
Name Wrangell
Region USA (Alaska)
Timezone America/Juneau (UTC-8.0)
Stats Elevation 44 ft / 13 m (AMSL)
Location 56.484300° -132.370000°
Runways 1
Magnetic Variation 17.911° E

METAR

PAWG 121556Z 10003KT 10SM BKN075 12/08 A2989

Decode

TAF

PAWG 121130Z 1212/1312 VRB03KT P6SM SKC FM121900 29005KT P6SM BKN060 AMD LTD TO CLD VIS AND WIND 1212/1215

Decode

Destination Runways

ID Width Length Bearing (true/mag) Surface Threshold Overrun Markings Lighting
10 157 ft / 48 m 5,985 ft / 1,824 m 121.40° / 103.49° ASPHALT 0 ft / 0 m 197 ft / 60 m PREC-APP CENTERLINE EDGE THRESHOLD
28 157 ft / 48 m 5,985 ft / 1,824 m 301.42° / 283.51° ASPHALT 0 ft / 0 m 197 ft / 60 m PREC-APP CENTERLINE EDGE THRESHOLD

Approach Navaids

Runway Type Ident Frequency Range Bearing (true/mag) Slope Elevation
10 DME IRGL 108.50 MHz 18 nm / 33 km - - 58 ft / 18 m (AMSL)
10 LOC-LOC IRGL 108.50 MHz 18 nm / 33 km 121.41° / 103.50 ° - 44 ft / 13 m (AMSL)

Popular Alternatives